Time;durP1;ratioP1;P1;durP2;ratioP2;P2;SDS_P1;SDS_P2;PMS_P1;PMS_P2;Temp;Humidity;BMP_temperature;BMP_pressure;BME280_temperature;BME280_humidity;BME280_pressure;Samples;Min_cycle;Max_cycle;Signal;HPM_P1;HPM_P2
2023/05/14 00:00:36;;;;;;;8.35;4.38;;;;;;;;;;5031947;28;20061;-71
2023/05/14 00:03:02;;;;;;;12.38;4.05;;;;;;;;;;4999488;28;20063;-71
2023/05/14 00:05:29;;;;;;;10.50;4.20;;;;;;;;;;5002872;28;20057;-71
2023/05/14 00:07:55;;;;;;;9.10;4.20;;;;;;;;;;5012165;28;20073;-70
2023/05/14 00:10:23;;;;;;;10.52;4.20;;;;;;;;;;5018010;28;20054;-69
2023/05/14 00:12:51;;;;;;;8.73;4.60;;;;;;;;;;4995333;28;20061;-70
2023/05/14 00:15:19;;;;;;;7.35;4.40;;;;;;;;;;5027195;28;20061;-70
2023/05/14 00:17:45;;;;;;;9.55;4.03;;;;;;;;;;5028959;28;20112;-69
2023/05/14 00:20:12;;;;;;;7.65;4.28;;;;;;;;;;5029073;28;20141;-68
2023/05/14 00:22:39;;;;;;;8.25;4.57;;;;;;;;;;5011173;28;20053;-71
2023/05/14 00:25:06;;;;;;;6.90;4.07;;;;;;;;;;5017935;28;20049;-69
2023/05/14 00:27:34;;;;;;;9.55;4.72;;;;;;;;;;5016553;28;20238;-69
2023/05/14 00:30:01;;;;;;;9.77;4.95;;;;;;;;;;5009954;28;20072;-70
2023/05/14 00:32:27;;;;;;;9.65;4.35;;;;;;;;;;5012779;28;20065;-69
2023/05/14 00:34:53;;;;;;;11.95;4.32;;;;;;;;;;5024577;28;20060;-69
2023/05/14 00:37:22;;;;;;;7.57;4.55;;;;;;;;;;4992457;28;20079;-69
2023/05/14 00:39:48;;;;;;;8.15;4.68;;;;;;;;;;4998873;28;20127;-69
2023/05/14 00:42:15;;;;;;;9.73;4.72;;;;;;;;;;5006310;28;20081;-69
2023/05/14 00:44:43;;;;;;;10.20;5.22;;;;;;;;;;5037784;28;20052;-69
2023/05/14 00:47:09;;;;;;;9.07;5.13;;;;;;;;;;5015780;28;20054;-69
2023/05/14 00:49:38;;;;;;;9.57;5.07;;;;;;;;;;5021462;28;20041;-69
2023/05/14 00:52:05;;;;;;;9.30;4.93;;;;;;;;;;5010741;28;20060;-69
2023/05/14 00:54:31;;;;;;;10.10;4.57;;;;;;;;;;5009648;28;20179;-69
2023/05/14 00:56:58;;;;;;;9.43;5.20;;;;;;;;;;5011819;28;20147;-69
2023/05/14 00:59:25;;;;;;;10.45;5.18;;;;;;;;;;5012873;28;20054;-70
2023/05/14 01:01:56;;;;;;;9.43;4.70;;;;;;;;;;5010527;28;20057;-70
2023/05/14 01:04:22;;;;;;;9.27;5.00;;;;;;;;;;5000542;28;20046;-69
2023/05/14 01:06:55;;;;;;;8.15;4.65;;;;;;;;;;5015498;28;20113;-70
2023/05/14 01:09:25;;;;;;;11.07;5.65;;;;;;;;;;5014403;28;20081;-69
2023/05/14 01:11:55;;;;;;;9.77;5.32;;;;;;;;;;5005071;28;20053;-69
2023/05/14 01:14:24;;;;;;;10.23;4.88;;;;;;;;;;5014204;28;20095;-69
2023/05/14 01:16:52;;;;;;;9.02;5.10;;;;;;;;;;5015424;28;20068;-69
2023/05/14 01:19:27;;;;;;;11.60;4.95;;;;;;;;;;5012954;28;20053;-70
2023/05/14 01:21:55;;;;;;;10.02;5.22;;;;;;;;;;5007500;28;20149;-70
2023/05/14 01:24:22;;;;;;;8.45;5.00;;;;;;;;;;4982379;28;20145;-69
2023/05/14 01:26:48;;;;;;;9.02;5.10;;;;;;;;;;4984288;28;20066;-69
2023/05/14 01:29:17;;;;;;;10.13;5.30;;;;;;;;;;4990777;28;20224;-70
2023/05/14 01:31:45;;;;;;;9.10;4.95;;;;;;;;;;4993575;28;20046;-69
2023/05/14 01:34:12;;;;;;;10.82;5.15;;;;;;;;;;4983703;28;20057;-69
2023/05/14 01:36:39;;;;;;;9.75;4.88;;;;;;;;;;4998526;28;20053;-69
2023/05/14 01:39:08;;;;;;;9.43;5.03;;;;;;;;;;4995711;28;20058;-69
2023/05/14 01:41:34;;;;;;;;;;;;;;;;;;4989939;28;20104;-69
2023/05/14 01:44:01;;;;;;;9.82;4.93;;;;;;;;;;4991408;28;19948;-69
2023/05/14 01:46:30;;;;;;;10.45;5.30;;;;;;;;;;4998625;28;20089;-69
2023/05/14 01:48:57;;;;;;;11.85;5.65;;;;;;;;;;4997735;28;20162;-69
2023/05/14 01:51:23;;;;;;;12.23;4.88;;;;;;;;;;4990677;28;20049;-69
2023/05/14 01:53:50;;;;;;;10.93;5.25;;;;;;;;;;4988550;28;20077;-68
2023/05/14 01:56:18;;;;;;;9.68;5.20;;;;;;;;;;4997115;28;20042;-69
2023/05/14 01:58:44;;;;;;;9.85;5.20;;;;;;;;;;4994247;28;20049;-68
2023/05/14 02:01:11;;;;;;;9.32;5.50;;;;;;;;;;4998226;28;20054;-69
2023/05/14 02:03:37;;;;;;;10.70;5.40;;;;;;;;;;4991410;28;20049;-69
2023/05/14 02:06:04;;;;;;;10.93;4.88;;;;;;;;;;5004703;28;20053;-68
2023/05/14 02:08:31;;;;;;;11.88;5.30;;;;;;;;;;5012580;28;20371;-69
2023/05/14 02:10:57;;;;;;;9.68;5.30;;;;;;;;;;5046868;28;20111;-69
2023/05/14 02:13:25;;;;;;;11.40;5.72;;;;;;;;;;5015598;28;20192;-69
2023/05/14 02:15:52;;;;;;;9.15;5.07;;;;;;;;;;4993595;28;20068;-69
2023/05/14 02:18:19;;;;;;;11.50;5.63;;;;;;;;;;5029617;28;20049;-69
2023/05/14 02:20:46;;;;;;;9.40;5.32;;;;;;;;;;5013627;28;20130;-69
2023/05/14 02:23:12;;;;;;;10.95;5.35;;;;;;;;;;4978789;28;20054;-69
2023/05/14 02:25:39;;;;;;;12.15;5.35;;;;;;;;;;4982593;28;20062;-69
2023/05/14 02:28:05;;;;;;;11.80;5.22;;;;;;;;;;4996598;28;20054;-69
2023/05/14 02:33:08;;;;;;;8.93;5.25;;;;;;;;;;5178192;23;20058;-69
2023/05/14 02:35:36;;;;;;;10.15;5.43;;;;;;;;;;4954327;28;20126;-68
2023/05/14 02:38:02;;;;;;;11.65;6.20;;;;;;;;;;4981574;28;20076;-69
2023/05/14 02:40:29;;;;;;;9.10;5.03;;;;;;;;;;4972776;28;20137;-70
2023/05/14 02:42:55;;;;;;;10.73;6.03;;;;;;;;;;4974196;28;20054;-68
2023/05/14 02:45:22;;;;;;;10.25;5.35;;;;;;;;;;4941571;28;20058;-69
2023/05/14 02:47:48;;;;;;;10.85;5.47;;;;;;;;;;4972851;28;20062;-69
2023/05/14 02:50:16;;;;;;;10.35;5.70;;;;;;;;;;4977141;28;20070;-69
2023/05/14 02:52:43;;;;;;;9.90;5.50;;;;;;;;;;4967470;28;20058;-69
2023/05/14 02:55:10;;;;;;;11.38;5.70;;;;;;;;;;4973671;28;20054;-69
2023/05/14 02:57:36;;;;;;;9.52;5.47;;;;;;;;;;4974303;28;20074;-69
2023/05/14 03:00:03;;;;;;;10.45;5.82;;;;;;;;;;4976997;28;20081;-69
2023/05/14 03:02:33;;;;;;;10.07;5.20;;;;;;;;;;4976968;28;20066;-69
2023/05/14 03:04:59;;;;;;;9.15;5.60;;;;;;;;;;4967898;28;20064;-69
2023/05/14 03:07:27;;;;;;;12.13;5.72;;;;;;;;;;4987587;28;20077;-69
2023/05/14 03:09:54;;;;;;;11.63;5.78;;;;;;;;;;4971292;28;20058;-69
2023/05/14 03:12:21;;;;;;;11.07;5.75;;;;;;;;;;4973771;28;20054;-70
2023/05/14 03:14:47;;;;;;;11.95;5.85;;;;;;;;;;4941410;28;20050;-69
2023/05/14 03:17:13;;;;;;;12.25;5.57;;;;;;;;;;4978316;28;20088;-69
2023/05/14 03:19:42;;;;;;;;;;;;;;;;;;4979138;28;20058;-69
2023/05/14 03:22:09;;;;;;;10.10;5.38;;;;;;;;;;4978143;28;19932;-69
2023/05/14 03:24:37;;;;;;;13.40;5.63;;;;;;;;;;4952433;28;20054;-70
2023/05/14 03:27:03;;;;;;;13.57;5.75;;;;;;;;;;4992694;28;20066;-69
2023/05/14 03:29:30;;;;;;;11.35;6.18;;;;;;;;;;4997388;28;20097;-69
2023/05/14 03:31:56;;;;;;;9.77;6.05;;;;;;;;;;4974895;28;20173;-69
2023/05/14 03:34:23;;;;;;;11.25;5.90;;;;;;;;;;4963730;28;20072;-70
2023/05/14 03:36:50;;;;;;;12.30;5.80;;;;;;;;;;4985379;28;20208;-68
2023/05/14 03:39:18;;;;;;;12.73;5.88;;;;;;;;;;4992112;28;20050;-69
2023/05/14 03:41:46;;;;;;;10.30;5.43;;;;;;;;;;4962164;28;20072;-69
2023/05/14 03:44:13;;;;;;;9.77;6.15;;;;;;;;;;4978802;28;20062;-69
2023/05/14 03:46:41;;;;;;;13.77;6.07;;;;;;;;;;4951294;28;20161;-69
2023/05/14 03:49:08;;;;;;;12.48;5.60;;;;;;;;;;4973942;28;20049;-69
2023/05/14 03:51:34;;;;;;;10.05;5.80;;;;;;;;;;4980004;28;20050;-69
2023/05/14 03:54:01;;;;;;;11.00;5.53;;;;;;;;;;4974855;28;20293;-69
2023/05/14 03:56:27;;;;;;;11.57;5.70;;;;;;;;;;4962196;28;20058;-70
2023/05/14 03:58:55;;;;;;;10.85;6.10;;;;;;;;;;4980574;28;20058;-69
2023/05/14 04:01:22;;;;;;;11.90;5.85;;;;;;;;;;4979195;28;20068;-69
2023/05/14 04:03:51;;;;;;;10.77;5.72;;;;;;;;;;4993146;28;20069;-69
2023/05/14 04:06:17;;;;;;;11.93;6.00;;;;;;;;;;4958528;28;20054;-69
2023/05/14 04:08:44;;;;;;;10.75;5.63;;;;;;;;;;4990925;28;20081;-69
2023/05/14 04:11:11;;;;;;;11.23;5.75;;;;;;;;;;4981218;28;20050;-69
2023/05/14 04:13:37;;;;;;;10.00;5.43;;;;;;;;;;4992625;28;20228;-69
2023/05/14 04:16:05;;;;;;;11.52;5.90;;;;;;;;;;4990226;28;20056;-69
2023/05/14 04:18:34;;;;;;;11.48;6.03;;;;;;;;;;4979275;28;20128;-70
2023/05/14 04:21:00;;;;;;;10.90;5.53;;;;;;;;;;4998809;28;20139;-68
2023/05/14 04:23:28;;;;;;;11.90;6.10;;;;;;;;;;4983457;28;20054;-69
2023/05/14 04:25:54;;;;;;;11.00;5.47;;;;;;;;;;4992916;28;20143;-69
2023/05/14 04:28:25;;;;;;;10.15;5.78;;;;;;;;;;4985100;28;20056;-70
2023/05/14 04:30:52;;;;;;;11.30;6.03;;;;;;;;;;4974697;28;20120;-69
2023/05/14 04:33:20;;;;;;;10.80;5.78;;;;;;;;;;4982338;28;20138;-69
2023/05/14 04:35:47;;;;;;;10.40;5.70;;;;;;;;;;4974031;28;20068;-69
2023/05/14 04:38:14;;;;;;;11.90;6.43;;;;;;;;;;4986099;28;20065;-70
2023/05/14 04:40:40;;;;;;;9.68;5.45;;;;;;;;;;4971866;28;20168;-70
2023/05/14 04:43:07;;;;;;;15.75;6.40;;;;;;;;;;4983810;28;20057;-69
2023/05/14 04:45:34;;;;;;;11.90;6.00;;;;;;;;;;4996305;28;20134;-69
2023/05/14 04:48:00;;;;;;;14.10;5.57;;;;;;;;;;5007642;28;20050;-70
2023/05/14 04:50:31;;;;;;;13.73;5.60;;;;;;;;;;5003493;28;20052;-69
2023/05/14 04:52:57;;;;;;;13.20;6.05;;;;;;;;;;4962486;28;20062;-69
2023/05/14 04:55:24;;;;;;;11.60;6.40;;;;;;;;;;4975561;28;20149;-70
2023/05/14 04:57:50;;;;;;;11.10;5.97;;;;;;;;;;4967530;28;20140;-69
2023/05/14 05:00:23;;;;;;;10.23;5.88;;;;;;;;;;4964507;28;20085;-69
2023/05/14 05:02:50;;;;;;;11.30;5.68;;;;;;;;;;4950600;28;20065;-69
2023/05/14 05:05:16;;;;;;;12.20;5.80;;;;;;;;;;4982298;28;20062;-70
2023/05/14 05:07:44;;;;;;;13.13;6.30;;;;;;;;;;4976317;28;20082;-69
2023/05/14 05:10:15;;;;;;;10.05;5.55;;;;;;;;;;4979022;28;20089;-69
2023/05/14 05:12:44;;;;;;;12.05;5.78;;;;;;;;;;4947913;28;20057;-69
2023/05/14 05:15:11;;;;;;;10.85;5.15;;;;;;;;;;4998567;28;20144;-69
2023/05/14 05:17:37;;;;;;;11.40;5.80;;;;;;;;;;4984054;28;20065;-69
2023/05/14 05:20:09;;;;;;;13.57;6.32;;;;;;;;;;4999261;28;20058;-69
2023/05/14 05:22:37;;;;;;;11.75;5.80;;;;;;;;;;4939409;28;20057;-69
2023/05/14 05:25:11;;;;;;;10.55;5.90;;;;;;;;;;4981801;28;20057;-69
2023/05/14 05:27:38;;;;;;;12.27;6.32;;;;;;;;;;4988986;28;20049;-69
2023/05/14 05:30:05;;;;;;;10.30;5.72;;;;;;;;;;4982133;28;20172;-69
2023/05/14 05:32:31;;;;;;;11.13;5.90;;;;;;;;;;4965740;28;20168;-69
2023/05/14 05:34:58;;;;;;;11.25;5.72;;;;;;;;;;4993334;28;20145;-69
2023/05/14 05:37:25;;;;;;;13.10;5.63;;;;;;;;;;4976402;28;20046;-69
2023/05/14 05:39:54;;;;;;;12.75;6.28;;;;;;;;;;4981747;28;20061;-70
2023/05/14 05:42:22;;;;;;;11.90;6.45;;;;;;;;;;4959165;28;20074;-70
2023/05/14 05:44:49;;;;;;;12.27;6.15;;;;;;;;;;4990502;28;20050;-69
2023/05/14 05:47:15;;;;;;;10.50;5.80;;;;;;;;;;4981796;28;20054;-69
2023/05/14 05:49:47;;;;;;;11.50;6.03;;;;;;;;;;4978430;28;20068;-70
2023/05/14 05:52:13;;;;;;;11.38;6.05;;;;;;;;;;4939277;28;20144;-69
2023/05/14 05:54:40;;;;;;;13.30;6.25;;;;;;;;;;4953368;28;20431;-69
2023/05/14 05:57:08;;;;;;;12.07;6.20;;;;;;;;;;4966853;28;20038;-70
2023/05/14 05:59:36;;;;;;;10.45;5.97;;;;;;;;;;4958596;28;20076;-69
2023/05/14 06:02:03;;;;;;;14.47;6.37;;;;;;;;;;4994492;28;20057;-69
2023/05/14 06:04:29;;;;;;;13.88;7.10;;;;;;;;;;4969352;28;20320;-70
2023/05/14 06:06:58;;;;;;;12.43;6.22;;;;;;;;;;4979096;28;20074;-70
2023/05/14 06:09:25;;;;;;;12.70;6.43;;;;;;;;;;4976718;28;20058;-69
2023/05/14 06:11:51;;;;;;;13.32;6.53;;;;;;;;;;4961488;28;20054;-70
2023/05/14 06:14:24;;;;;;;12.25;6.10;;;;;;;;;;4966500;28;20121;-70
2023/05/14 06:16:52;;;;;;;12.48;5.88;;;;;;;;;;4981103;28;20064;-69
2023/05/14 06:19:18;;;;;;;12.73;5.95;;;;;;;;;;4976914;28;20049;-69
2023/05/14 06:21:47;;;;;;;;;;;;;;;;;;4998232;28;20145;-70
2023/05/14 06:24:15;;;;;;;13.70;6.35;;;;;;;;;;4980785;28;19929;-70
2023/05/14 06:26:43;;;;;;;14.65;6.63;;;;;;;;;;4974979;28;20049;-70
2023/05/14 06:29:10;;;;;;;12.98;6.05;;;;;;;;;;4977002;28;20140;-70
2023/05/14 06:31:37;;;;;;;12.55;6.38;;;;;;;;;;4984093;28;20092;-70
2023/05/14 06:34:09;;;;;;;14.60;6.57;;;;;;;;;;4960650;28;20061;-70
2023/05/14 06:36:39;;;;;;;10.88;6.00;;;;;;;;;;4980478;28;20096;-70
2023/05/14 06:39:07;;;;;;;13.48;6.03;;;;;;;;;;4982968;28;20061;-70
2023/05/14 06:41:34;;;;;;;11.90;6.13;;;;;;;;;;4981279;28;20061;-71
2023/05/14 06:44:00;;;;;;;12.13;6.10;;;;;;;;;;4960819;28;20049;-69
2023/05/14 06:46:31;;;;;;;14.95;6.43;;;;;;;;;;4995651;28;20144;-71
2023/05/14 06:48:59;;;;;;;14.38;6.43;;;;;;;;;;4981616;28;20050;-72
2023/05/14 06:51:31;;;;;;;10.90;5.93;;;;;;;;;;4980670;28;20056;-72
2023/05/14 06:53:57;;;;;;;12.68;6.38;;;;;;;;;;4959108;28;20053;-72
2023/05/14 06:56:28;;;;;;;;;;;;;;;;;;4974185;28;20045;-72
2023/05/14 06:58:55;;;;;;;;;;;;;;;;;;5016662;28;20016;-72
2023/05/14 07:01:23;;;;;;;12.38;5.93;;;;;;;;;;4981539;28;19925;-72
2023/05/14 07:03:50;;;;;;;13.85;6.60;;;;;;;;;;4922825;28;20146;-72
2023/05/14 07:06:23;;;;;;;13.00;6.50;;;;;;;;;;4991280;28;20042;-74
2023/05/14 07:08:52;;;;;;;12.18;6.72;;;;;;;;;;4981189;28;20071;-72
2023/05/14 07:11:21;;;;;;;14.45;6.50;;;;;;;;;;4978470;28;20053;-72
2023/05/14 07:16:13;;;;;;;14.37;6.60;;;;;;;;;;4897046;28;20045;-72
2023/05/14 07:18:40;;;;;;;14.25;6.32;;;;;;;;;;4969921;28;20062;-70
2023/05/14 07:21:07;;;;;;;14.60;6.47;;;;;;;;;;4981191;28;20053;-69
2023/05/14 07:23:37;;;;;;;;;;;;;;;;;;4965590;28;20116;-70
2023/05/14 07:26:05;;;;;;;11.98;6.35;;;;;;;;;;4983492;28;19944;-69
2023/05/14 07:28:32;;;;;;;13.00;6.05;;;;;;;;;;4972021;28;20054;-70
2023/05/14 07:30:58;;;;;;;15.05;6.72;;;;;;;;;;4982398;28;20060;-69
2023/05/14 07:33:28;;;;;;;10.70;6.28;;;;;;;;;;4963459;28;20057;-69
2023/05/14 07:35:54;;;;;;;12.40;6.63;;;;;;;;;;4988329;28;20149;-70
2023/05/14 07:38:24;;;;;;;12.30;5.80;;;;;;;;;;4998930;28;20136;-69
2023/05/14 07:40:51;;;;;;;12.88;6.72;;;;;;;;;;5000333;28;20050;-69
2023/05/14 07:43:19;;;;;;;13.45;6.18;;;;;;;;;;4959220;28;20086;-69
2023/05/14 07:45:46;;;;;;;12.60;6.70;;;;;;;;;;5006414;28;20050;-69
2023/05/14 07:48:15;;;;;;;11.40;6.15;;;;;;;;;;4983644;28;20064;-69
2023/05/14 07:50:42;;;;;;;12.63;6.38;;;;;;;;;;4981374;28;20053;-69
2023/05/14 07:53:09;;;;;;;12.40;6.38;;;;;;;;;;4947893;28;20139;-70
2023/05/14 07:55:35;;;;;;;18.23;6.40;;;;;;;;;;4924104;28;20062;-69
2023/05/14 07:58:02;;;;;;;13.15;6.70;;;;;;;;;;4981919;28;20064;-69
2023/05/14 08:00:30;;;;;;;11.20;5.75;;;;;;;;;;4988214;28;20054;-69
2023/05/14 08:02:56;;;;;;;12.68;6.43;;;;;;;;;;4918223;28;20059;-70
2023/05/14 08:05:32;;;;;;;11.35;5.68;;;;;;;;;;4917557;28;20051;-69
2023/05/14 08:07:58;;;;;;;10.70;5.93;;;;;;;;;;4971357;28;20054;-69
2023/05/14 08:10:31;;;;;;;11.65;6.25;;;;;;;;;;4975942;28;20046;-70
2023/05/14 08:13:01;;;;;;;12.98;6.00;;;;;;;;;;4939772;28;20141;-69
2023/05/14 08:15:33;;;;;;;10.90;5.93;;;;;;;;;;4955519;28;20054;-68
2023/05/14 08:18:02;;;;;;;14.00;6.50;;;;;;;;;;4964297;28;20160;-69
2023/05/14 08:20:31;;;;;;;11.68;6.15;;;;;;;;;;4960252;28;20054;-68
2023/05/14 08:22:57;;;;;;;;;;;;;;;;;;4969634;28;20073;-69
2023/05/14 08:25:25;;;;;;;10.80;5.90;;;;;;;;;;4972249;28;19944;-69
2023/05/14 08:27:53;;;;;;;14.57;6.72;;;;;;;;;;5000422;28;20053;-69
2023/05/14 08:30:22;;;;;;;14.73;6.72;;;;;;;;;;4978223;28;20103;-69
2023/05/14 08:32:55;;;;;;;13.43;6.05;;;;;;;;;;4966910;28;20050;-69
2023/05/14 08:35:27;;;;;;;13.57;7.00;;;;;;;;;;4977237;28;20193;-71
2023/05/14 08:37:56;;;;;;;11.85;6.20;;;;;;;;;;4967068;28;20058;-69
2023/05/14 08:40:26;;;;;;;12.20;5.90;;;;;;;;;;4967881;28;20058;-69
2023/05/14 08:42:52;;;;;;;12.65;6.63;;;;;;;;;;4964829;28;20054;-69
2023/05/14 08:45:22;;;;;;;11.43;5.93;;;;;;;;;;4974322;28;20054;-69
2023/05/14 08:47:50;;;;;;;12.05;6.68;;;;;;;;;;4978204;28;20085;-69
2023/05/14 08:50:18;;;;;;;13.52;7.05;;;;;;;;;;4976042;28;20054;-68
2023/05/14 08:52:48;;;;;;;13.18;6.40;;;;;;;;;;4965939;28;20067;-68
2023/05/14 08:55:19;;;;;;;11.93;6.63;;;;;;;;;;4956297;28;20059;-70
2023/05/14 08:57:50;;;;;;;11.25;6.40;;;;;;;;;;4955548;28;20089;-69
2023/05/14 09:00:17;;;;;;;12.70;6.72;;;;;;;;;;4955822;28;20046;-69
2023/05/14 09:02:44;;;;;;;12.10;6.53;;;;;;;;;;4954157;28;20057;-68
2023/05/14 09:05:14;;;;;;;11.63;6.03;;;;;;;;;;4958372;28;20149;-69
2023/05/14 09:07:42;;;;;;;13.20;6.68;;;;;;;;;;4966720;28;20059;-69
2023/05/14 09:10:16;;;;;;;13.32;6.50;;;;;;;;;;4961223;28;20055;-68
2023/05/14 09:12:44;;;;;;;12.07;6.90;;;;;;;;;;4973602;28;20205;-70
2023/05/14 09:15:12;;;;;;;11.32;6.32;;;;;;;;;;4936438;28;20065;-69
2023/05/14 09:17:41;;;;;;;13.80;6.68;;;;;;;;;;4939521;28;20055;-69
2023/05/14 09:20:12;;;;;;;12.45;6.88;;;;;;;;;;4957674;28;20054;-69
2023/05/14 09:22:41;;;;;;;11.77;6.60;;;;;;;;;;4952716;28;20054;-69
2023/05/14 09:25:13;;;;;;;15.63;6.72;;;;;;;;;;4937695;28;20054;-69
2023/05/14 09:27:41;;;;;;;10.85;6.38;;;;;;;;;;4951464;28;20050;-69
2023/05/14 09:30:17;;;;;;;12.90;6.82;;;;;;;;;;4974490;28;20054;-69
2023/05/14 09:32:48;;;;;;;13.00;6.72;;;;;;;;;;4969254;28;20113;-68
2023/05/14 09:35:24;;;;;;;11.98;6.38;;;;;;;;;;4898134;28;20090;-71
2023/05/14 09:37:53;;;;;;;10.75;6.60;;;;;;;;;;4948404;28;20061;-70
2023/05/14 09:40:23;;;;;;;11.40;5.60;;;;;;;;;;4990901;28;20231;-70
2023/05/14 09:42:52;;;;;;;12.15;6.28;;;;;;;;;;4970196;28;20078;-70
2023/05/14 09:45:24;;;;;;;11.48;6.25;;;;;;;;;;4919885;28;20050;-69
2023/05/14 09:48:02;;;;;;;16.80;6.53;;;;;;;;;;4969264;28;20058;-69
2023/05/14 09:50:28;;;;;;;13.43;6.40;;;;;;;;;;4970372;28;20082;-69
2023/05/14 09:52:55;;;;;;;12.55;6.20;;;;;;;;;;4944614;28;20055;-69
2023/05/14 09:55:25;;;;;;;15.57;6.97;;;;;;;;;;4965034;28;20053;-69
2023/05/14 09:57:55;;;;;;;11.80;6.00;;;;;;;;;;4971891;28;20058;-69
2023/05/14 10:00:22;;;;;;;13.32;6.03;;;;;;;;;;4978747;28;20150;-70
2023/05/14 10:02:52;;;;;;;10.15;5.95;;;;;;;;;;4954339;28;20055;-69
2023/05/14 10:05:20;;;;;;;10.90;5.75;;;;;;;;;;4961438;28;20061;-69
2023/05/14 10:08:11;;;;;;;11.27;5.63;;;;;;;;;;4976089;28;20078;-69
2023/05/14 10:10:42;;;;;;;13.20;5.97;;;;;;;;;;4922707;29;20083;-69
2023/05/14 10:13:16;;;;;;;11.20;6.20;;;;;;;;;;4941224;28;20065;-69
2023/05/14 10:15:47;;;;;;;10.77;6.20;;;;;;;;;;4943637;28;20058;-69
2023/05/14 10:18:18;;;;;;;12.23;6.38;;;;;;;;;;4974526;28;20175;-68
2023/05/14 10:20:50;;;;;;;12.13;5.85;;;;;;;;;;4976332;28;20050;-69
2023/05/14 10:23:19;;;;;;;12.35;6.05;;;;;;;;;;4968362;28;20050;-70
2023/05/14 10:25:47;;;;;;;11.23;6.30;;;;;;;;;;4960926;28;20054;-69
2023/05/14 10:28:14;;;;;;;16.30;6.70;;;;;;;;;;4976585;28;20066;-69
2023/05/14 10:33:31;;;;;;;9.82;5.97;;;;;;;;;;4940227;28;20054;-71
2023/05/14 10:36:13;;;;;;;11.57;5.50;;;;;;;;;;4938355;28;20076;-71
2023/05/14 10:38:48;;;;;;;10.50;5.63;;;;;;;;;;4952945;28;20054;-72
2023/05/14 10:41:30;;;;;;;12.15;6.07;;;;;;;;;;4936081;28;20059;-71
2023/05/14 10:43:59;;;;;;;11.43;5.88;;;;;;;;;;4908636;28;20090;-72
2023/05/14 10:46:28;;;;;;;13.45;6.53;;;;;;;;;;4937780;29;20058;-71
2023/05/14 10:48:55;;;;;;;10.30;6.07;;;;;;;;;;4940121;29;20127;-71
2023/05/14 10:51:30;;;;;;;11.48;5.82;;;;;;;;;;4928571;28;20051;-70
2023/05/14 10:53:59;;;;;;;8.63;5.00;;;;;;;;;;4910609;28;20055;-71
2023/05/14 10:56:29;;;;;;;12.57;5.43;;;;;;;;;;4946033;28;20058;-71
2023/05/14 10:58:58;;;;;;;11.73;5.97;;;;;;;;;;4959083;28;20110;-71
2023/05/14 11:01:24;;;;;;;11.75;5.38;;;;;;;;;;4945796;28;20058;-71
2023/05/14 11:03:54;;;;;;;9.40;5.22;;;;;;;;;;4948222;28;20051;-71
2023/05/14 11:06:21;;;;;;;12.15;6.78;;;;;;;;;;4970004;28;20066;-72
2023/05/14 11:08:48;;;;;;;14.48;6.78;;;;;;;;;;4957472;28;20127;-70
2023/05/14 11:11:17;;;;;;;15.38;6.85;;;;;;;;;;4956619;28;20057;-70
2023/05/14 11:13:46;;;;;;;12.68;6.47;;;;;;;;;;4952362;28;20090;-71
2023/05/14 11:16:17;;;;;;;11.60;5.80;;;;;;;;;;4935474;28;20057;-70
2023/05/14 11:18:44;;;;;;;9.88;5.20;;;;;;;;;;4958367;28;20109;-69
2023/05/14 11:21:20;;;;;;;11.60;5.85;;;;;;;;;;4964211;28;20054;-71
2023/05/14 11:23:47;;;;;;;9.75;5.68;;;;;;;;;;4947539;28;20892;-71
2023/05/14 11:26:15;;;;;;;11.73;5.75;;;;;;;;;;4886616;28;20051;-68
2023/05/14 11:28:45;;;;;;;10.35;5.53;;;;;;;;;;4957359;28;20058;-68
2023/05/14 11:31:18;;;;;;;9.75;5.10;;;;;;;;;;4952732;28;20054;-68
2023/05/14 11:33:49;;;;;;;9.50;4.85;;;;;;;;;;4945498;28;20050;-68
2023/05/14 11:36:16;;;;;;;9.32;4.95;;;;;;;;;;4958977;28;20233;-68
2023/05/14 11:38:50;;;;;;;12.13;5.40;;;;;;;;;;4956996;28;20050;-67
2023/05/14 11:41:26;;;;;;;;;;;;;;;;;;;;;
2023/05/14 11:43:54;;;;;;;9.68;5.15;;;;;;;;;;4955126;28;20058;-68
2023/05/14 11:46:24;;;;;;;8.27;5.00;;;;;;;;;;4952428;28;20055;-69
2023/05/14 11:48:51;;;;;;;8.57;4.78;;;;;;;;;;4957765;28;20059;-68
2023/05/14 11:51:17;;;;;;;8.52;4.45;;;;;;;;;;4956603;28;20090;-67
2023/05/14 11:53:45;;;;;;;8.70;4.35;;;;;;;;;;4951519;28;20055;-67
2023/05/14 11:56:12;;;;;;;8.60;4.80;;;;;;;;;;4955173;28;20054;-68
2023/05/14 11:58:38;;;;;;;9.13;4.50;;;;;;;;;;4956653;28;20075;-68
2023/05/14 12:01:19;;;;;;;10.07;4.95;;;;;;;;;;4961482;28;20123;-67
2023/05/14 12:03:48;;;;;;;11.48;4.60;;;;;;;;;;4946201;28;20062;-67
2023/05/14 12:06:15;;;;;;;9.73;4.65;;;;;;;;;;4911253;28;20050;-69
2023/05/14 12:08:43;;;;;;;8.85;4.93;;;;;;;;;;4917022;28;20055;-69
2023/05/14 12:11:10;;;;;;;8.43;4.38;;;;;;;;;;4918825;29;20059;-69
2023/05/14 12:13:36;;;;;;;10.55;4.75;;;;;;;;;;4930952;28;20149;-69
2023/05/14 12:16:04;;;;;;;7.97;4.45;;;;;;;;;;4929395;28;20053;-69
2023/05/14 12:18:33;;;;;;;7.47;4.38;;;;;;;;;;4955756;28;20082;-70
2023/05/14 12:21:06;;;;;;;7.03;4.35;;;;;;;;;;4957611;28;20375;-69
2023/05/14 12:23:33;;;;;;;11.82;4.38;;;;;;;;;;4946923;28;20074;-69
2023/05/14 12:26:04;;;;;;;9.32;4.60;;;;;;;;;;4954782;28;20058;-70
2023/05/14 12:28:31;;;;;;;7.00;4.40;;;;;;;;;;4955606;28;20205;-70
2023/05/14 12:30:58;;;;;;;8.35;4.00;;;;;;;;;;4960955;28;20065;-69
2023/05/14 12:33:26;;;;;;;10.55;4.05;;;;;;;;;;4957305;28;20106;-70
2023/05/14 12:35:56;;;;;;;10.63;4.38;;;;;;;;;;4959420;28;20061;-69
2023/05/14 12:38:24;;;;;;;9.20;3.95;;;;;;;;;;4968306;28;20054;-70
2023/05/14 12:40:51;;;;;;;8.25;4.30;;;;;;;;;;4963141;28;20051;-69
2023/05/14 12:43:22;;;;;;;7.05;4.30;;;;;;;;;;4957167;28;20051;-69
2023/05/14 12:45:49;;;;;;;9.18;4.20;;;;;;;;;;4964818;28;20053;-69
2023/05/14 12:48:15;;;;;;;8.48;4.18;;;;;;;;;;4995918;28;20089;-68
2023/05/14 12:50:42;;;;;;;8.27;4.47;;;;;;;;;;4981608;28;20066;-68
2023/05/14 12:53:08;;;;;;;8.35;3.80;;;;;;;;;;4981630;28;20061;-69
2023/05/14 12:55:39;;;;;;;6.85;3.67;;;;;;;;;;4967090;28;20069;-68
2023/05/14 12:58:06;;;;;;;8.10;3.90;;;;;;;;;;4979079;28;20149;-67
2023/05/14 13:00:32;;;;;;;9.07;3.70;;;;;;;;;;4977160;28;20046;-67
2023/05/14 13:02:59;;;;;;;7.22;4.00;;;;;;;;;;4962706;28;20055;-67
2023/05/14 13:05:28;;;;;;;7.60;3.78;;;;;;;;;;4941344;28;20115;-67
2023/05/14 13:07:58;;;;;;;9.10;3.90;;;;;;;;;;4966070;28;20071;-68
2023/05/14 13:10:25;;;;;;;11.32;3.72;;;;;;;;;;4964098;28;20137;-68
2023/05/14 13:12:55;;;;;;;8.82;3.47;;;;;;;;;;4973277;28;20055;-68
2023/05/14 13:15:25;;;;;;;7.78;3.92;;;;;;;;;;4937611;28;20136;-70
2023/05/14 13:17:51;;;;;;;9.18;3.90;;;;;;;;;;4981709;28;20069;-69
2023/05/14 13:20:22;;;;;;;6.55;3.60;;;;;;;;;;4977071;28;20054;-68
2023/05/14 13:22:51;;;;;;;;;;;;;;;;;;4979307;28;20104;-68
2023/05/14 13:25:19;;;;;;;7.18;3.45;;;;;;;;;;4940069;28;20017;-67
2023/05/14 13:27:49;;;;;;;6.28;3.28;;;;;;;;;;4974078;28;20089;-68
2023/05/14 13:30:19;;;;;;;6.18;3.30;;;;;;;;;;4967059;28;20051;-68
2023/05/14 13:32:45;;;;;;;8.55;3.83;;;;;;;;;;5004802;28;20046;-68
2023/05/14 13:35:13;;;;;;;6.65;3.25;;;;;;;;;;4948178;28;20051;-66
2023/05/14 13:37:39;;;;;;;10.40;3.97;;;;;;;;;;4946592;28;20191;-68
2023/05/14 13:40:07;;;;;;;6.93;3.80;;;;;;;;;;4960580;28;20073;-67
2023/05/14 13:42:33;;;;;;;10.97;3.97;;;;;;;;;;4969952;28;20050;-68
2023/05/14 13:45:05;;;;;;;6.28;3.35;;;;;;;;;;4961228;28;20077;-68
2023/05/14 13:47:33;;;;;;;7.05;3.40;;;;;;;;;;4970571;28;20085;-67
2023/05/14 13:50:01;;;;;;;6.55;3.20;;;;;;;;;;4981424;28;20085;-68
2023/05/14 13:52:31;;;;;;;7.70;2.92;;;;;;;;;;4978911;28;20101;-67
2023/05/14 13:55:10;;;;;;;9.05;3.45;;;;;;;;;;4977234;28;20077;-67
2023/05/14 13:57:38;;;;;;;5.90;2.92;;;;;;;;;;4977808;28;20053;-68
2023/05/14 14:00:06;;;;;;;7.75;3.58;;;;;;;;;;4980615;28;20077;-67
2023/05/14 14:02:34;;;;;;;7.20;3.30;;;;;;;;;;4976319;28;20062;-68
2023/05/14 14:05:04;;;;;;;6.07;3.20;;;;;;;;;;4955880;28;20058;-68
2023/05/14 14:07:30;;;;;;;6.45;3.13;;;;;;;;;;4956467;28;20058;-68
2023/05/14 14:09:58;;;;;;;10.68;3.33;;;;;;;;;;4963050;28;20062;-68
2023/05/14 14:12:31;;;;;;;6.95;2.95;;;;;;;;;;4959019;28;20153;-68
2023/05/14 14:14:57;;;;;;;9.10;3.17;;;;;;;;;;4975640;28;20060;-68
2023/05/14 14:17:27;;;;;;;7.10;3.30;;;;;;;;;;4982699;28;20062;-69
2023/05/14 14:19:55;;;;;;;7.50;3.47;;;;;;;;;;4980211;28;20181;-67
2023/05/14 14:22:22;;;;;;;7.18;3.10;;;;;;;;;;4977922;28;20058;-68
2023/05/14 14:24:50;;;;;;;7.88;3.10;;;;;;;;;;4948240;28;20050;-68
2023/05/14 14:27:17;;;;;;;6.97;3.05;;;;;;;;;;4944816;28;20073;-67
2023/05/14 14:29:43;;;;;;;6.32;2.80;;;;;;;;;;4967926;28;20069;-67
2023/05/14 14:32:10;;;;;;;4.90;2.75;;;;;;;;;;4978397;28;20161;-69
2023/05/14 14:34:36;;;;;;;7.32;2.90;;;;;;;;;;4968193;28;20054;-67
2023/05/14 14:37:05;;;;;;;7.80;3.42;;;;;;;;;;4982447;28;20141;-68
2023/05/14 14:39:32;;;;;;;7.78;3.30;;;;;;;;;;4971414;28;20113;-67
2023/05/14 14:41:59;;;;;;;5.43;2.70;;;;;;;;;;4979185;28;20061;-68
2023/05/14 14:44:27;;;;;;;5.13;2.88;;;;;;;;;;4971578;28;20050;-68
2023/05/14 14:46:55;;;;;;;4.50;2.55;;;;;;;;;;4984834;28;20061;-68
2023/05/14 14:49:23;;;;;;;6.47;3.22;;;;;;;;;;4971634;28;20057;-67
2023/05/14 14:51:49;;;;;;;6.57;3.30;;;;;;;;;;4976645;28;20122;-67